createdAt,value
2019-04-30T00:00:40.085Z,92.70
2019-04-30T00:02:49.160Z,92.70
2019-04-30T00:04:55.353Z,92.80
2019-04-30T00:06:57.722Z,93.20
2019-04-30T00:08:58.885Z,93.60
2019-04-30T00:11:00.028Z,93.10
2019-04-30T00:13:01.181Z,92.10
2019-04-30T00:15:02.929Z,92.20
2019-04-30T00:17:06.447Z,92.40
2019-04-30T00:19:10.675Z,92.20
2019-04-30T00:21:15.140Z,92.00
2019-04-30T00:23:18.070Z,91.70
2019-04-30T00:25:24.311Z,93.00
2019-04-30T00:27:28.298Z,93.40
2019-04-30T00:29:30.884Z,93.20
2019-04-30T00:31:30.289Z,93.00
2019-04-30T00:33:31.553Z,93.50
2019-04-30T00:35:32.844Z,93.30
2019-04-30T00:37:35.279Z,93.30
2019-04-30T00:39:36.728Z,93.90
2019-04-30T00:41:39.952Z,93.40
2019-04-30T00:43:46.415Z,92.30
2019-04-30T00:45:47.605Z,92.00
2019-04-30T00:47:48.543Z,92.60
2019-04-30T00:49:52.247Z,91.80
2019-04-30T00:51:54.718Z,91.80
2019-04-30T00:53:56.352Z,91.70
2019-04-30T00:55:57.613Z,92.90
2019-04-30T00:57:58.945Z,93.40
2019-04-30T01:00:05.002Z,92.50
2019-04-30T01:02:08.611Z,92.40
2019-04-30T01:04:24.444Z,93.00
2019-04-30T01:06:28.511Z,92.80
2019-04-30T01:08:28.749Z,92.80
2019-04-30T01:10:31.490Z,92.90
2019-04-30T01:12:38.512Z,92.70
2019-04-30T01:14:36.404Z,93.40
2019-04-30T01:16:39.463Z,93.80
2019-04-30T01:18:41.067Z,94.60
2019-04-30T01:20:42.337Z,95.00
2019-04-30T01:22:44.150Z,95.40
2019-04-30T01:24:45.882Z,95.60
2019-04-30T01:26:48.597Z,95.80
2019-04-30T01:28:53.694Z,95.90
2019-04-30T01:30:57.960Z,95.90
2019-04-30T01:32:58.825Z,95.80
2019-04-30T01:35:00.540Z,95.80
2019-04-30T01:37:01.807Z,95.40
2019-04-30T01:39:05.053Z,95.00
2019-04-30T01:41:09.472Z,94.50
2019-04-30T01:43:10.889Z,94.10
2019-04-30T01:45:12.459Z,94.00
2019-04-30T01:47:13.717Z,93.90
2019-04-30T01:49:15.024Z,94.10
2019-04-30T01:51:20.307Z,93.90
2019-04-30T01:53:19.549Z,93.90
2019-04-30T01:55:24.621Z,93.20
2019-04-30T01:57:29.279Z,93.40
2019-04-30T01:59:35.601Z,93.20
2019-04-30T02:01:39.065Z,92.80
2019-04-30T02:03:40.496Z,93.60
2019-04-30T02:05:42.091Z,94.00
2019-04-30T02:07:45.926Z,93.90
2019-04-30T02:09:46.577Z,93.40
2019-04-30T02:11:48.800Z,93.10
2019-04-30T02:13:50.644Z,92.90
2019-04-30T02:15:51.793Z,92.90
2019-04-30T02:17:53.057Z,93.10
2019-04-30T02:19:56.838Z,93.40
2019-04-30T02:21:58.548Z,93.20
2019-04-30T02:23:59.947Z,93.20
2019-04-30T02:26:01.226Z,93.20
2019-04-30T02:28:03.121Z,93.10
2019-04-30T02:30:06.720Z,92.80
2019-04-30T02:32:10.138Z,93.10
2019-04-30T02:34:15.847Z,92.90
2019-04-30T02:36:19.878Z,93.10
2019-04-30T02:38:24.315Z,93.20
2019-04-30T02:40:26.237Z,93.40
2019-04-30T02:42:29.700Z,93.30
2019-04-30T02:44:32.044Z,93.50
2019-04-30T02:46:35.508Z,93.50
2019-04-30T02:48:39.636Z,93.40
2019-04-30T02:50:44.327Z,93.70
2019-04-30T02:52:45.832Z,93.60
2019-04-30T02:54:50.514Z,93.90
2019-04-30T02:56:53.946Z,93.80
2019-04-30T02:58:55.218Z,93.80
2019-04-30T03:00:56.495Z,93.40
2019-04-30T03:03:00.085Z,93.70
2019-04-30T03:05:01.517Z,93.60
2019-04-30T03:07:03.069Z,93.70
2019-04-30T03:09:05.141Z,93.60
2019-04-30T03:11:06.410Z,93.70
2019-04-30T03:13:09.679Z,93.50
2019-04-30T03:15:11.130Z,93.30
2019-04-30T03:17:14.312Z,93.30
2019-04-30T03:19:26.506Z,93.40
2019-04-30T03:21:45.768Z,93.40
2019-04-30T03:23:47.274Z,92.50
2019-04-30T03:25:50.187Z,92.40
2019-04-30T03:27:51.832Z,92.40
2019-04-30T03:29:53.392Z,92.80
2019-04-30T03:31:54.732Z,92.80
2019-04-30T03:33:56.386Z,93.10
2019-04-30T03:36:01.784Z,93.30
2019-04-30T03:38:00.943Z,93.40
2019-04-30T03:40:05.218Z,93.60
2019-04-30T03:42:06.579Z,93.70
2019-04-30T03:44:21.114Z,93.60
2019-04-30T03:46:11.434Z,93.30
2019-04-30T03:48:13.170Z,93.00
2019-04-30T03:50:14.837Z,93.00
2019-04-30T03:52:16.075Z,92.80
2019-04-30T03:54:19.415Z,92.90
2019-04-30T03:56:22.881Z,93.40
2019-04-30T03:58:23.703Z,93.90
2019-04-30T04:00:27.182Z,93.60
2019-04-30T04:02:36.301Z,93.60
2019-04-30T04:04:42.876Z,93.20
2019-04-30T04:06:51.859Z,93.40
2019-04-30T04:08:55.014Z,93.30
2019-04-30T04:11:00.524Z,93.30
2019-04-30T04:13:01.414Z,93.00
2019-04-30T04:15:04.420Z,93.00
2019-04-30T04:17:05.774Z,92.70
2019-04-30T04:19:09.522Z,92.50
2019-04-30T04:21:16.203Z,92.60
2019-04-30T04:23:14.504Z,92.30
2019-04-30T04:25:15.783Z,92.70
2019-04-30T04:27:19.342Z,92.50
2019-04-30T04:29:20.606Z,92.40
2019-04-30T04:31:21.881Z,92.70
2019-04-30T04:33:23.156Z,92.80
2019-04-30T04:35:24.442Z,92.60
2019-04-30T04:37:25.996Z,92.40
2019-04-30T04:39:29.702Z,92.60
2019-04-30T04:41:30.522Z,92.30
2019-04-30T04:43:31.860Z,92.60
2019-04-30T04:45:34.257Z,92.40
2019-04-30T04:47:35.462Z,92.50
2019-04-30T04:49:36.800Z,92.30
2019-04-30T04:51:42.036Z,92.40
2019-04-30T04:53:41.639Z,92.50
2019-04-30T04:55:42.902Z,92.20
2019-04-30T04:57:45.173Z,92.40
2019-04-30T04:59:46.434Z,92.50
2019-04-30T05:01:48.930Z,92.40
2019-04-30T05:03:50.526Z,92.30
2019-04-30T05:05:52.078Z,92.60
2019-04-30T05:07:53.626Z,92.30
2019-04-30T05:09:54.888Z,92.00
2019-04-30T05:11:56.156Z,91.90
2019-04-30T05:13:58.921Z,91.80
2019-04-30T05:16:00.386Z,91.90
2019-04-30T05:18:02.014Z,91.60
2019-04-30T05:20:05.387Z,91.60
2019-04-30T05:22:06.661Z,91.40
2019-04-30T05:24:09.069Z,91.30
2019-04-30T05:26:11.017Z,91.30
2019-04-30T05:28:12.522Z,91.20
2019-04-30T05:30:14.046Z,91.00
2019-04-30T05:32:15.347Z,91.00
2019-04-30T05:34:18.656Z,91.10
2019-04-30T05:36:20.229Z,91.00
2019-04-30T05:38:21.373Z,91.10
2019-04-30T05:40:22.645Z,90.80
2019-04-30T05:42:24.934Z,91.00
2019-04-30T05:44:26.312Z,90.80
2019-04-30T05:46:29.636Z,90.40
2019-04-30T05:48:30.974Z,91.40
2019-04-30T05:50:32.250Z,91.30
2019-04-30T05:52:33.528Z,91.60
2019-04-30T05:54:34.793Z,92.00
2019-04-30T05:56:36.063Z,92.60
2019-04-30T05:58:39.717Z,92.40
2019-04-30T06:00:41.584Z,92.60
2019-04-30T06:02:43.129Z,92.70
2019-04-30T06:04:44.377Z,92.20
2019-04-30T06:06:48.667Z,92.90
2019-04-30T06:09:04.640Z,92.80
2019-04-30T06:10:59.842Z,92.50
2019-04-30T06:13:04.315Z,92.80
2019-04-30T06:15:09.011Z,92.80
2019-04-30T06:17:15.769Z,92.70
2019-04-30T06:19:17.043Z,92.30
2019-04-30T06:21:21.306Z,92.40
2019-04-30T06:23:21.624Z,91.90
2019-04-30T06:25:31.125Z,91.70
2019-04-30T06:27:26.489Z,91.30
2019-04-30T06:29:29.025Z,91.30
2019-04-30T06:31:34.859Z,90.70
2019-04-30T06:33:33.753Z,90.90
2019-04-30T06:35:35.402Z,90.70
2019-04-30T06:37:38.730Z,90.50
2019-04-30T06:39:40.308Z,90.10
2019-04-30T06:41:41.862Z,89.70
2019-04-30T06:43:43.166Z,90.50
2019-04-30T06:45:44.630Z,90.00
2019-04-30T06:47:48.907Z,89.40
2019-04-30T06:49:51.596Z,90.50
2019-04-30T06:51:53.360Z,90.60
2019-04-30T06:53:54.628Z,90.70
2019-04-30T06:55:55.981Z,91.30
2019-04-30T06:58:09.618Z,91.60
2019-04-30T07:00:00.423Z,91.60
2019-04-30T07:02:01.751Z,92.20
2019-04-30T07:04:03.216Z,92.20
2019-04-30T07:06:04.489Z,91.80
2019-04-30T07:08:36.270Z,92.10
2019-04-30T07:10:29.469Z,91.60
2019-04-30T07:12:39.012Z,91.40
2019-04-30T07:14:41.969Z,90.70
2019-04-30T07:16:43.380Z,90.40
2019-04-30T07:18:44.658Z,90.10
2019-04-30T07:20:45.879Z,89.50
2019-04-30T07:22:52.331Z,89.00
2019-04-30T07:24:50.502Z,88.30
2019-04-30T07:26:54.714Z,88.00
2019-04-30T07:28:55.554Z,87.20
2019-04-30T07:31:08.735Z,86.40
2019-04-30T07:32:59.977Z,86.30
2019-04-30T07:35:01.128Z,85.50
2019-04-30T07:37:11.989Z,84.10
2019-04-30T07:39:06.293Z,87.80
2019-04-30T07:41:09.556Z,84.60
2019-04-30T07:45:25.529Z,87.80
2019-04-30T07:47:26.114Z,89.40
2019-04-30T07:49:46.492Z,89.80
2019-04-30T07:51:32.067Z,90.30
2019-04-30T07:53:33.745Z,90.70
2019-04-30T07:55:35.014Z,90.60
2019-04-30T07:57:36.153Z,90.60
2019-04-30T07:59:39.532Z,90.30
2019-04-30T08:02:00.206Z,89.70
2019-04-30T08:03:52.986Z,88.90
2019-04-30T08:06:03.306Z,87.50
2019-04-30T08:08:20.289Z,86.50
2019-04-30T08:10:08.740Z,85.90
2019-04-30T08:12:11.301Z,86.20
2019-04-30T08:14:13.097Z,84.50
2019-04-30T08:16:15.245Z,84.90
2019-04-30T08:18:18.386Z,83.90
2019-04-30T08:20:19.769Z,85.70
2019-04-30T08:22:21.100Z,86.00
2019-04-30T08:24:22.260Z,85.80
2019-04-30T08:26:23.701Z,85.50
2019-04-30T08:28:24.881Z,85.40
2019-04-30T08:30:27.084Z,84.70
2019-04-30T08:32:29.334Z,82.80
2019-04-30T08:34:30.501Z,81.00
2019-04-30T08:36:33.144Z,81.10
2019-04-30T08:38:34.568Z,82.70
2019-04-30T08:40:35.718Z,85.90
2019-04-30T08:42:39.766Z,85.80
2019-04-30T08:44:39.940Z,84.60
2019-04-30T08:46:41.249Z,81.70
2019-04-30T08:48:50.447Z,83.00
2019-04-30T08:50:45.492Z,79.90
2019-04-30T08:52:46.797Z,82.00
2019-04-30T08:54:49.560Z,84.20
2019-04-30T08:56:51.017Z,83.40
2019-04-30T08:58:54.806Z,82.70
2019-04-30T09:00:55.398Z,82.00
2019-04-30T09:02:56.534Z,80.10
2019-04-30T09:05:00.497Z,81.10
2019-04-30T09:07:01.929Z,79.80
2019-04-30T09:09:07.036Z,79.50
2019-04-30T09:11:22.104Z,75.80
2019-04-30T09:13:11.516Z,78.20
2019-04-30T09:15:12.765Z,78.30
2019-04-30T09:17:13.914Z,78.30
2019-04-30T09:19:15.053Z,79.30
2019-04-30T09:21:18.663Z,78.60
2019-04-30T09:23:19.980Z,77.70
2019-04-30T09:25:21.130Z,77.20
2019-04-30T09:27:22.260Z,74.40
2019-04-30T09:29:23.402Z,76.10
2019-04-30T09:31:24.922Z,76.10
2019-04-30T09:33:26.072Z,73.60
2019-04-30T09:35:31.470Z,76.70
2019-04-30T09:37:31.420Z,76.70
2019-04-30T09:39:32.560Z,75.90
2019-04-30T09:41:34.099Z,75.70
2019-04-30T09:43:35.283Z,74.30
2019-04-30T09:45:38.415Z,73.30
2019-04-30T09:47:41.929Z,73.50
2019-04-30T09:49:42.885Z,74.00
2019-04-30T09:51:44.183Z,73.10
2019-04-30T09:53:55.726Z,72.20
2019-04-30T09:55:49.644Z,72.30
2019-04-30T09:57:51.437Z,71.40
2019-04-30T09:59:54.492Z,72.30
2019-04-30T10:01:55.648Z,72.10
2019-04-30T10:03:57.158Z,71.50
2019-04-30T10:05:59.174Z,70.10
2019-04-30T10:08:00.364Z,69.60
2019-04-30T10:10:03.322Z,68.80
2019-04-30T10:12:06.370Z,68.50
2019-04-30T10:14:07.533Z,68.30
2019-04-30T10:16:13.269Z,66.80
2019-04-30T10:18:14.440Z,66.70
2019-04-30T10:20:17.525Z,65.70
2019-04-30T10:22:18.687Z,66.30
2019-04-30T10:24:19.845Z,66.30
2019-04-30T10:26:21.393Z,65.30
2019-04-30T10:28:22.839Z,67.70
2019-04-30T10:30:25.953Z,72.80
2019-04-30T10:32:27.294Z,70.00
2019-04-30T10:34:28.446Z,66.20
2019-04-30T10:36:29.759Z,69.10
2019-04-30T10:38:31.229Z,68.20
2019-04-30T10:40:32.385Z,70.00
2019-04-30T10:42:34.875Z,71.10
2019-04-30T10:44:36.205Z,68.80
2019-04-30T10:46:37.377Z,68.10
2019-04-30T10:48:38.640Z,67.10
2019-04-30T10:50:40.959Z,63.90
2019-04-30T10:52:42.286Z,62.80
2019-04-30T10:54:43.505Z,59.70
2019-04-30T10:56:44.932Z,62.00
2019-04-30T10:58:46.092Z,63.20
2019-04-30T11:00:47.355Z,63.10
2019-04-30T11:02:49.689Z,62.00
2019-04-30T11:04:51.079Z,61.70
2019-04-30T11:06:52.227Z,61.40
2019-04-30T11:08:53.384Z,57.40
2019-04-30T11:10:54.539Z,62.30
2019-04-30T11:12:57.169Z,61.20
2019-04-30T11:14:58.314Z,60.40
2019-04-30T11:17:00.079Z,58.90
2019-04-30T11:19:01.711Z,59.80
2019-04-30T11:21:04.185Z,59.50
2019-04-30T11:23:14.074Z,59.20
2019-04-30T11:25:10.015Z,58.40
2019-04-30T11:27:12.639Z,56.60
2019-04-30T11:29:14.554Z,58.20
2019-04-30T11:31:23.765Z,53.20
2019-04-30T11:33:25.186Z,60.30
2019-04-30T11:35:26.509Z,58.80
2019-04-30T11:37:27.784Z,57.00
2019-04-30T11:39:29.758Z,53.80
2019-04-30T11:41:33.298Z,52.50
2019-04-30T11:43:34.320Z,52.20
2019-04-30T11:45:46.577Z,59.40
2019-04-30T11:47:53.575Z,59.60
2019-04-30T11:49:52.899Z,57.60
2019-04-30T11:51:54.072Z,57.00
2019-04-30T11:53:55.216Z,55.70
2019-04-30T11:55:56.618Z,53.80
2019-04-30T11:57:59.216Z,49.00
2019-04-30T12:00:00.522Z,57.50
2019-04-30T12:02:03.573Z,57.10
2019-04-30T12:04:04.720Z,50.90
2019-04-30T12:06:05.871Z,50.10
2019-04-30T12:08:09.537Z,51.70
2019-04-30T12:10:19.500Z,57.60
2019-04-30T12:12:20.825Z,58.30
2019-04-30T12:14:21.988Z,56.00
2019-04-30T12:16:23.130Z,50.60
2019-04-30T12:18:24.395Z,50.50
2019-04-30T12:20:25.553Z,53.80
2019-04-30T12:22:26.792Z,52.70
2019-04-30T12:24:30.267Z,51.10
2019-04-30T12:26:31.528Z,50.60
2019-04-30T12:28:32.769Z,48.60
2019-04-30T12:30:34.169Z,48.50
2019-04-30T12:32:35.383Z,48.50
2019-04-30T12:34:36.608Z,47.90
2019-04-30T12:36:38.807Z,46.90
2019-04-30T12:38:40.217Z,46.10
2019-04-30T12:40:41.359Z,45.90
2019-04-30T12:42:42.577Z,45.20
2019-04-30T12:44:44.153Z,46.40
2019-04-30T12:46:45.294Z,40.70
2019-04-30T12:48:54.276Z,43.80
2019-04-30T12:50:59.012Z,46.60
2019-04-30T12:53:04.872Z,50.70
2019-04-30T12:55:15.216Z,48.00
2019-04-30T12:57:16.113Z,45.00
2019-04-30T12:59:19.052Z,41.80
2019-04-30T13:01:20.284Z,43.40
2019-04-30T13:03:21.452Z,47.80
2019-04-30T13:05:22.880Z,47.40
2019-04-30T13:07:24.613Z,51.20
2019-04-30T13:09:27.501Z,49.80
2019-04-30T13:11:31.089Z,41.80
2019-04-30T13:13:33.188Z,51.40
2019-04-30T13:15:43.968Z,46.10
2019-04-30T13:17:58.552Z,50.60
2019-04-30T13:20:18.804Z,48.30
2019-04-30T13:22:18.969Z,46.40
2019-04-30T13:24:35.785Z,45.50
2019-04-30T13:26:42.287Z,44.90
2019-04-30T13:29:17.932Z,43.00
2019-04-30T13:31:19.308Z,42.90
2019-04-30T13:33:39.170Z,42.00
2019-04-30T13:35:50.436Z,41.20
2019-04-30T13:38:06.830Z,41.50
2019-04-30T13:40:24.370Z,40.50
2019-04-30T13:42:34.196Z,39.30
2019-04-30T13:44:42.779Z,39.80
2019-04-30T13:46:51.022Z,40.00
2019-04-30T13:49:09.151Z,33.90
2019-04-30T13:51:20.969Z,42.90
2019-04-30T13:53:30.560Z,41.10
2019-04-30T13:55:45.579Z,40.30
2019-04-30T13:57:50.558Z,40.40
2019-04-30T14:00:04.336Z,40.40
2019-04-30T14:02:18.527Z,38.00
2019-04-30T14:04:52.222Z,41.50
2019-04-30T14:07:05.410Z,40.90
2019-04-30T14:09:15.745Z,39.90
2019-04-30T14:11:18.992Z,37.90
2019-04-30T14:13:20.753Z,41.50
2019-04-30T14:15:21.974Z,40.00
2019-04-30T14:17:23.121Z,41.10
2019-04-30T14:19:24.264Z,40.70
2019-04-30T14:21:34.608Z,36.30
2019-04-30T14:23:28.909Z,38.00
2019-04-30T14:25:30.129Z,40.00
2019-04-30T14:27:31.517Z,40.80
2019-04-30T14:29:32.664Z,41.10
2019-04-30T14:31:33.836Z,38.90
2019-04-30T14:33:34.985Z,38.00
2019-04-30T14:35:36.137Z,37.90
2019-04-30T14:37:38.930Z,37.30
2019-04-30T14:39:40.768Z,37.00
2019-04-30T14:41:43.244Z,35.60
2019-04-30T14:43:51.079Z,35.70
2019-04-30T14:45:54.991Z,38.00
2019-04-30T14:48:17.787Z,37.90
2019-04-30T14:50:24.957Z,37.10
2019-04-30T14:52:26.333Z,35.70
2019-04-30T14:54:46.304Z,35.70
2019-04-30T14:57:01.525Z,35.50
2019-04-30T14:59:21.603Z,35.50
2019-04-30T15:01:35.549Z,35.40
2019-04-30T15:03:39.367Z,34.90
2019-04-30T15:05:48.557Z,35.10
2019-04-30T15:07:43.854Z,33.60
2019-04-30T15:09:45.216Z,35.30
2019-04-30T15:11:48.604Z,31.60
2019-04-30T15:13:49.814Z,37.50
2019-04-30T15:15:50.970Z,35.40
2019-04-30T15:17:52.121Z,36.80
2019-04-30T15:19:54.626Z,37.00
2019-04-30T15:21:55.916Z,36.40
2019-04-30T15:24:02.162Z,35.90
2019-04-30T15:26:05.068Z,35.20
2019-04-30T15:28:06.464Z,35.20
2019-04-30T15:30:08.873Z,34.30
2019-04-30T15:32:10.014Z,35.30
2019-04-30T15:34:12.443Z,36.00
2019-04-30T15:36:13.601Z,34.70
2019-04-30T15:38:14.844Z,35.40
2019-04-30T15:40:16.197Z,36.30
2019-04-30T15:42:18.514Z,37.00
2019-04-30T15:44:19.653Z,36.00
2019-04-30T15:46:20.841Z,36.00
2019-04-30T15:48:21.971Z,34.00
2019-04-30T15:50:23.192Z,35.50
2019-04-30T15:52:24.456Z,35.40
2019-04-30T15:54:25.620Z,34.60
2019-04-30T15:56:35.328Z,33.70
2019-04-30T15:58:31.836Z,33.80
2019-04-30T16:00:33.006Z,35.60
2019-04-30T16:02:36.161Z,34.70
2019-04-30T16:04:56.091Z,36.00
2019-04-30T16:06:58.457Z,36.10
2019-04-30T16:09:04.472Z,36.50
2019-04-30T16:11:10.405Z,36.40
2019-04-30T16:13:12.738Z,37.50
2019-04-30T16:15:13.979Z,38.70
2019-04-30T16:17:20.723Z,37.80
2019-04-30T16:19:22.074Z,38.00
2019-04-30T16:21:23.357Z,37.50
2019-04-30T16:23:24.504Z,37.80
2019-04-30T16:25:25.815Z,36.00
2019-04-30T16:27:27.061Z,36.90
2019-04-30T16:29:28.272Z,35.20
2019-04-30T16:31:29.434Z,36.60
2019-04-30T16:33:30.670Z,35.80
2019-04-30T16:35:31.825Z,36.80
2019-04-30T16:37:33.033Z,35.60
2019-04-30T16:39:34.303Z,35.20
2019-04-30T16:41:35.459Z,36.20
2019-04-30T16:43:38.861Z,35.40
2019-04-30T16:45:39.969Z,37.20
2019-04-30T16:47:41.116Z,38.50
2019-04-30T16:49:42.705Z,37.10
2019-04-30T16:51:44.218Z,38.40
2019-04-30T16:53:45.461Z,39.80
2019-04-30T16:55:50.015Z,40.00
2019-04-30T16:57:50.514Z,39.60
2019-04-30T16:59:53.433Z,38.50
2019-04-30T17:01:57.799Z,39.60
2019-04-30T17:03:59.713Z,39.60
2019-04-30T17:06:08.985Z,37.30
2019-04-30T17:08:28.985Z,40.00
2019-04-30T17:10:34.788Z,38.50
2019-04-30T17:12:38.693Z,42.60
2019-04-30T17:14:41.820Z,42.60
2019-04-30T17:16:42.965Z,43.50
2019-04-30T17:18:44.111Z,43.90
2019-04-30T17:20:45.261Z,44.50
2019-04-30T17:22:46.395Z,45.10
2019-04-30T17:24:49.404Z,44.70
2019-04-30T17:26:50.598Z,45.30
2019-04-30T17:28:51.842Z,45.30
2019-04-30T17:30:53.048Z,46.20
2019-04-30T17:32:54.293Z,45.90
2019-04-30T17:34:55.481Z,46.80
2019-04-30T17:36:59.029Z,46.90
2019-04-30T17:39:00.127Z,47.10
2019-04-30T17:41:02.668Z,48.00
2019-04-30T17:43:03.809Z,49.10
2019-04-30T17:45:06.878Z,49.40
2019-04-30T17:47:09.108Z,48.80
2019-04-30T17:49:13.180Z,49.80
2019-04-30T17:51:14.336Z,49.60
2019-04-30T17:53:15.852Z,50.50
2019-04-30T17:55:19.483Z,51.30
2019-04-30T17:57:31.408Z,51.50
2019-04-30T17:59:25.171Z,51.40
2019-04-30T18:01:26.689Z,51.30
2019-04-30T18:03:28.940Z,51.20
2019-04-30T18:05:30.181Z,52.70
2019-04-30T18:07:31.328Z,53.00
2019-04-30T18:09:32.489Z,52.60
2019-04-30T18:11:33.782Z,53.30
2019-04-30T18:13:34.923Z,53.20
2019-04-30T18:15:36.160Z,53.80
2019-04-30T18:17:37.335Z,53.50
2019-04-30T18:19:41.392Z,53.70
2019-04-30T18:21:50.438Z,54.20
2019-04-30T18:24:10.156Z,54.80
2019-04-30T18:26:13.261Z,54.60
2019-04-30T18:28:14.860Z,54.70
2019-04-30T18:30:19.021Z,54.90
2019-04-30T18:32:23.173Z,55.10
2019-04-30T18:34:24.358Z,55.20
2019-04-30T18:36:25.640Z,55.20
2019-04-30T18:38:29.271Z,55.50
2019-04-30T18:40:30.553Z,56.30
2019-04-30T18:42:31.824Z,56.30
2019-04-30T18:44:33.068Z,56.40
2019-04-30T18:46:34.236Z,56.80
2019-04-30T18:48:35.532Z,56.70
2019-04-30T18:50:37.119Z,56.60
2019-04-30T18:52:38.795Z,58.30
2019-04-30T18:54:40.213Z,57.30
2019-04-30T18:56:41.385Z,57.50
2019-04-30T18:58:43.382Z,58.00
2019-04-30T19:00:44.856Z,58.10
2019-04-30T19:02:48.592Z,58.00
2019-04-30T19:04:50.006Z,59.30
2019-04-30T19:06:53.065Z,58.80
2019-04-30T19:09:09.622Z,59.00
2019-04-30T19:11:23.989Z,59.20
2019-04-30T19:13:33.009Z,59.20
2019-04-30T19:16:18.058Z,59.50
2019-04-30T19:18:03.461Z,59.80
2019-04-30T19:20:22.308Z,59.80
2019-04-30T19:22:23.479Z,61.20
2019-04-30T19:24:25.050Z,60.60
2019-04-30T19:26:26.397Z,60.80
2019-04-30T19:28:28.720Z,60.60
2019-04-30T19:30:32.491Z,61.10
2019-04-30T19:32:33.270Z,61.20
2019-04-30T19:34:34.417Z,62.00
2019-04-30T19:36:37.858Z,62.50
2019-04-30T19:38:39.004Z,62.60
2019-04-30T19:40:40.145Z,63.90
2019-04-30T19:42:41.297Z,63.30
2019-04-30T19:44:42.459Z,64.10
2019-04-30T19:46:43.604Z,65.90
2019-04-30T19:48:44.853Z,67.00
2019-04-30T19:50:46.007Z,67.80
2019-04-30T19:52:47.162Z,68.70
2019-04-30T19:54:48.804Z,69.00
2019-04-30T19:56:50.373Z,69.80
2019-04-30T19:59:01.740Z,70.10
2019-04-30T20:00:55.166Z,71.50
2019-04-30T20:02:59.436Z,71.80
2019-04-30T20:05:01.278Z,71.40
2019-04-30T20:07:02.587Z,69.60
2019-04-30T20:09:05.237Z,70.40
2019-04-30T20:11:08.282Z,71.40
2019-04-30T20:13:10.797Z,72.40
2019-04-30T20:15:18.972Z,71.70
2019-04-30T20:17:15.641Z,70.40
2019-04-30T20:19:16.815Z,69.60
2019-04-30T20:21:28.410Z,70.60
2019-04-30T20:23:23.178Z,71.50
2019-04-30T20:25:24.317Z,72.70
2019-04-30T20:27:25.500Z,74.00
2019-04-30T20:29:28.688Z,73.60
2019-04-30T20:31:29.765Z,72.60
2019-04-30T20:33:31.026Z,72.30
2019-04-30T20:35:32.485Z,71.80
2019-04-30T20:37:35.920Z,71.20
2019-04-30T20:39:44.904Z,71.20
2019-04-30T20:41:46.728Z,70.50
2019-04-30T20:43:49.403Z,70.40
2019-04-30T20:45:51.864Z,70.10
2019-04-30T20:47:53.021Z,70.20
2019-04-30T20:49:54.256Z,70.30
2019-04-30T20:51:56.230Z,70.40
2019-04-30T20:53:59.226Z,70.50
2019-04-30T20:56:01.845Z,70.30
2019-04-30T20:58:03.121Z,70.10
2019-04-30T21:00:07.152Z,70.80
2019-04-30T21:02:10.212Z,71.20
2019-04-30T21:04:11.698Z,72.20
2019-04-30T21:06:13.233Z,72.70
2019-04-30T21:08:14.581Z,72.80
2019-04-30T21:10:15.740Z,73.70
2019-04-30T21:12:18.722Z,74.00
2019-04-30T21:14:20.221Z,73.70
2019-04-30T21:16:21.367Z,74.40
2019-04-30T21:18:22.629Z,75.50
2019-04-30T21:20:23.876Z,75.90
2019-04-30T21:22:25.815Z,76.10
2019-04-30T21:24:27.013Z,77.10
2019-04-30T21:26:28.152Z,76.10
2019-04-30T21:28:29.819Z,76.40
2019-04-30T21:30:31.181Z,76.40
2019-04-30T21:32:51.291Z,76.70
2019-04-30T21:34:56.990Z,76.80
2019-04-30T21:36:59.693Z,76.90
2019-04-30T21:39:01.037Z,77.60
2019-04-30T21:41:02.185Z,77.80
2019-04-30T21:43:03.333Z,77.20
2019-04-30T21:45:04.586Z,77.80
2019-04-30T21:47:05.732Z,78.40
2019-04-30T21:49:08.883Z,77.80
2019-04-30T21:51:10.335Z,77.70
2019-04-30T21:53:11.478Z,76.40
2019-04-30T21:55:12.626Z,76.40
2019-04-30T21:57:14.093Z,76.10
2019-04-30T21:59:24.079Z,77.00
2019-04-30T22:01:20.197Z,77.80
2019-04-30T22:03:21.541Z,78.90
2019-04-30T22:05:23.694Z,78.60
2019-04-30T22:07:24.837Z,78.70
2019-04-30T22:09:26.250Z,80.20
2019-04-30T22:11:29.479Z,80.20
2019-04-30T22:13:30.528Z,80.30
2019-04-30T22:15:31.812Z,80.80
2019-04-30T22:17:32.956Z,80.20
2019-04-30T22:19:34.119Z,80.00
2019-04-30T22:21:35.302Z,78.90
2019-04-30T22:23:36.485Z,81.40
2019-04-30T22:25:39.299Z,82.30
2019-04-30T22:27:40.593Z,80.80
2019-04-30T22:29:42.205Z,79.20
2019-04-30T22:31:43.596Z,77.60
2019-04-30T22:33:44.745Z,77.30
2019-04-30T22:35:53.797Z,77.40
2019-04-30T22:38:09.297Z,76.60
2019-04-30T22:40:10.508Z,75.90
2019-04-30T22:42:31.417Z,76.40
2019-04-30T22:44:32.564Z,75.10
2019-04-30T22:46:33.725Z,79.10
2019-04-30T22:48:35.004Z,77.40
2019-04-30T22:50:36.221Z,77.90
2019-04-30T22:52:37.372Z,77.40
2019-04-30T22:54:38.522Z,79.20
2019-04-30T22:56:39.942Z,78.10
2019-04-30T22:58:41.223Z,77.80
2019-04-30T23:00:44.668Z,77.30
2019-04-30T23:02:48.193Z,77.20
2019-04-30T23:04:51.046Z,77.70
2019-04-30T23:06:52.188Z,78.40
2019-04-30T23:08:53.333Z,80.20
2019-04-30T23:10:54.478Z,80.10
2019-04-30T23:12:55.638Z,80.40
2019-04-30T23:14:57.188Z,80.90
2019-04-30T23:16:58.340Z,80.90
2019-04-30T23:18:59.497Z,81.00
2019-04-30T23:21:00.735Z,81.10
2019-04-30T23:23:01.969Z,81.50
2019-04-30T23:25:04.383Z,81.50
2019-04-30T23:27:05.609Z,80.70
2019-04-30T23:29:06.882Z,80.60
2019-04-30T23:31:08.037Z,80.50
2019-04-30T23:33:09.311Z,80.80
2019-04-30T23:35:10.958Z,81.10
2019-04-30T23:37:12.381Z,81.10
2019-04-30T23:39:13.532Z,81.10
2019-04-30T23:41:15.086Z,81.30
2019-04-30T23:43:17.342Z,82.10
2019-04-30T23:45:18.503Z,82.30
2019-04-30T23:47:19.855Z,81.20
2019-04-30T23:49:20.992Z,80.10
2019-04-30T23:51:22.136Z,79.30
2019-04-30T23:53:23.284Z,78.50
2019-04-30T23:55:24.441Z,78.60
2019-04-30T23:57:25.930Z,79.30
2019-04-30T23:59:27.179Z,79.70
